sensor_id;sensor_type;location;lat;lon;timestamp;P1;durP1;ratioP1;P2;durP2;ratioP2
61523;SDS011;47393;38.758;-9.164;2023-08-12T00:00:47;26.90;;;4.97;;
61523;SDS011;47393;38.758;-9.164;2023-08-12T00:02:48;21.08;;;4.28;;
61523;SDS011;47393;38.758;-9.164;2023-08-12T00:04:49;13.15;;;4.15;;
61523;SDS011;47393;38.758;-9.164;2023-08-12T00:06:49;15.90;;;4.47;;
61523;SDS011;47393;38.758;-9.164;2023-08-12T00:08:50;18.25;;;4.63;;
61523;SDS011;47393;38.758;-9.164;2023-08-12T00:10:52;16.05;;;4.30;;
61523;SDS011;47393;38.758;-9.164;2023-08-12T00:12:53;29.63;;;4.53;;
61523;SDS011;47393;38.758;-9.164;2023-08-12T00:14:55;15.65;;;4.13;;
61523;SDS011;47393;38.758;-9.164;2023-08-12T00:16:57;13.77;;;4.38;;
61523;SDS011;47393;38.758;-9.164;2023-08-12T00:18:57;27.75;;;4.75;;
61523;SDS011;47393;38.758;-9.164;2023-08-12T00:20:58;15.63;;;3.78;;
61523;SDS011;47393;38.758;-9.164;2023-08-12T00:22:59;17.80;;;4.60;;
61523;SDS011;47393;38.758;-9.164;2023-08-12T00:25:00;20.50;;;4.25;;
61523;SDS011;47393;38.758;-9.164;2023-08-12T00:27:01;16.13;;;4.63;;
61523;SDS011;47393;38.758;-9.164;2023-08-12T00:29:02;16.77;;;4.35;;
61523;SDS011;47393;38.758;-9.164;2023-08-12T00:31:03;12.63;;;3.58;;
61523;SDS011;47393;38.758;-9.164;2023-08-12T00:33:06;18.80;;;3.25;;
61523;SDS011;47393;38.758;-9.164;2023-08-12T00:35:09;23.45;;;3.88;;
61523;SDS011;47393;38.758;-9.164;2023-08-12T00:37:11;13.43;;;3.45;;
61523;SDS011;47393;38.758;-9.164;2023-08-12T00:39:13;10.32;;;3.30;;
61523;SDS011;47393;38.758;-9.164;2023-08-12T00:41:14;12.73;;;3.17;;
61523;SDS011;47393;38.758;-9.164;2023-08-12T00:43:15;9.65;;;2.97;;
61523;SDS011;47393;38.758;-9.164;2023-08-12T00:45:17;11.20;;;2.63;;
61523;SDS011;47393;38.758;-9.164;2023-08-12T00:47:17;7.45;;;2.45;;
61523;SDS011;47393;38.758;-9.164;2023-08-12T00:49:18;5.57;;;2.13;;
61523;SDS011;47393;38.758;-9.164;2023-08-12T00:51:20;8.25;;;2.42;;
61523;SDS011;47393;38.758;-9.164;2023-08-12T00:53:21;7.05;;;2.50;;
61523;SDS011;47393;38.758;-9.164;2023-08-12T00:55:23;7.03;;;1.70;;
61523;SDS011;47393;38.758;-9.164;2023-08-12T00:57:24;9.27;;;2.22;;
61523;SDS011;47393;38.758;-9.164;2023-08-12T00:59:25;2.17;;;1.48;;
61523;SDS011;47393;38.758;-9.164;2023-08-12T01:01:26;6.05;;;1.70;;
61523;SDS011;47393;38.758;-9.164;2023-08-12T01:03:28;6.38;;;1.40;;
61523;SDS011;47393;38.758;-9.164;2023-08-12T01:05:30;2.22;;;1.30;;
61523;SDS011;47393;38.758;-9.164;2023-08-12T01:07:31;1.90;;;1.30;;
61523;SDS011;47393;38.758;-9.164;2023-08-12T01:09:33;5.00;;;1.30;;
61523;SDS011;47393;38.758;-9.164;2023-08-12T01:11:52;2.70;;;1.40;;
61523;SDS011;47393;38.758;-9.164;2023-08-12T01:14:00;1.20;;;1.10;;
61523;SDS011;47393;38.758;-9.164;2023-08-12T01:16:01;5.20;;;1.23;;
61523;SDS011;47393;38.758;-9.164;2023-08-12T01:18:04;4.37;;;1.10;;
61523;SDS011;47393;38.758;-9.164;2023-08-12T01:20:07;6.53;;;1.60;;
61523;SDS011;47393;38.758;-9.164;2023-08-12T01:22:12;3.28;;;0.93;;
61523;SDS011;47393;38.758;-9.164;2023-08-12T01:24:14;2.42;;;0.98;;
61523;SDS011;47393;38.758;-9.164;2023-08-12T01:26:15;0.82;;;0.65;;
61523;SDS011;47393;38.758;-9.164;2023-08-12T01:28:16;2.20;;;0.98;;
61523;SDS011;47393;38.758;-9.164;2023-08-12T01:30:20;2.90;;;0.75;;
61523;SDS011;47393;38.758;-9.164;2023-08-12T01:32:59;5.78;;;0.80;;
61523;SDS011;47393;38.758;-9.164;2023-08-12T01:36:58;2.08;;;0.70;;
61523;SDS011;47393;38.758;-9.164;2023-08-12T01:39:03;2.72;;;0.60;;
61523;SDS011;47393;38.758;-9.164;2023-08-12T01:41:08;0.60;;;0.60;;
61523;SDS011;47393;38.758;-9.164;2023-08-12T01:43:10;0.75;;;0.75;;
61523;SDS011;47393;38.758;-9.164;2023-08-12T01:45:12;7.95;;;0.70;;
61523;SDS011;47393;38.758;-9.164;2023-08-12T01:47:13;1.88;;;0.60;;
61523;SDS011;47393;38.758;-9.164;2023-08-12T01:49:16;0.85;;;0.65;;
61523;SDS011;47393;38.758;-9.164;2023-08-12T01:51:17;0.70;;;0.70;;
61523;SDS011;47393;38.758;-9.164;2023-08-12T01:53:18;1.00;;;0.65;;
61523;SDS011;47393;38.758;-9.164;2023-08-12T01:55:19;1.02;;;0.70;;
61523;SDS011;47393;38.758;-9.164;2023-08-12T01:57:20;0.73;;;0.73;;
61523;SDS011;47393;38.758;-9.164;2023-08-12T01:59:21;0.65;;;0.60;;
61523;SDS011;47393;38.758;-9.164;2023-08-12T02:01:23;0.60;;;0.60;;
61523;SDS011;47393;38.758;-9.164;2023-08-12T02:03:24;0.88;;;0.88;;
61523;SDS011;47393;38.758;-9.164;2023-08-12T02:05:25;4.05;;;0.90;;
61523;SDS011;47393;38.758;-9.164;2023-08-12T02:07:28;3.22;;;0.98;;
61523;SDS011;47393;38.758;-9.164;2023-08-12T02:09:28;1.27;;;0.70;;
61523;SDS011;47393;38.758;-9.164;2023-08-12T02:11:29;2.05;;;1.10;;
61523;SDS011;47393;38.758;-9.164;2023-08-12T02:13:31;2.40;;;1.33;;
61523;SDS011;47393;38.758;-9.164;2023-08-12T02:15:33;1.30;;;1.10;;
61523;SDS011;47393;38.758;-9.164;2023-08-12T02:17:40;1.23;;;1.17;;
61523;SDS011;47393;38.758;-9.164;2023-08-12T02:19:47;1.92;;;1.08;;
61523;SDS011;47393;38.758;-9.164;2023-08-12T02:21:48;4.32;;;1.42;;
61523;SDS011;47393;38.758;-9.164;2023-08-12T02:23:50;1.77;;;1.67;;
61523;SDS011;47393;38.758;-9.164;2023-08-12T02:25:51;2.33;;;1.30;;
61523;SDS011;47393;38.758;-9.164;2023-08-12T02:27:54;1.80;;;1.40;;
61523;SDS011;47393;38.758;-9.164;2023-08-12T02:29:56;1.42;;;1.10;;
61523;SDS011;47393;38.758;-9.164;2023-08-12T02:31:58;1.35;;;1.33;;
61523;SDS011;47393;38.758;-9.164;2023-08-12T02:33:59;1.33;;;1.23;;
61523;SDS011;47393;38.758;-9.164;2023-08-12T02:36:00;1.08;;;1.00;;
61523;SDS011;47393;38.758;-9.164;2023-08-12T02:38:01;1.23;;;1.23;;
61523;SDS011;47393;38.758;-9.164;2023-08-12T02:40:03;1.05;;;1.00;;
61523;SDS011;47393;38.758;-9.164;2023-08-12T02:42:05;1.20;;;1.20;;
61523;SDS011;47393;38.758;-9.164;2023-08-12T02:44:06;1.20;;;1.20;;
61523;SDS011;47393;38.758;-9.164;2023-08-12T02:46:08;0.90;;;0.90;;
61523;SDS011;47393;38.758;-9.164;2023-08-12T02:48:09;1.10;;;1.05;;
61523;SDS011;47393;38.758;-9.164;2023-08-12T02:50:12;1.15;;;1.05;;
61523;SDS011;47393;38.758;-9.164;2023-08-12T02:52:13;0.95;;;0.95;;
61523;SDS011;47393;38.758;-9.164;2023-08-12T02:54:16;1.05;;;0.98;;
61523;SDS011;47393;38.758;-9.164;2023-08-12T02:56:17;4.22;;;1.00;;
61523;SDS011;47393;38.758;-9.164;2023-08-12T02:58:18;1.75;;;1.00;;
61523;SDS011;47393;38.758;-9.164;2023-08-12T03:00:22;0.90;;;0.90;;
61523;SDS011;47393;38.758;-9.164;2023-08-12T03:02:23;1.70;;;1.02;;
61523;SDS011;47393;38.758;-9.164;2023-08-12T03:04:24;1.35;;;1.25;;
61523;SDS011;47393;38.758;-9.164;2023-08-12T03:06:25;0.85;;;0.85;;
61523;SDS011;47393;38.758;-9.164;2023-08-12T03:08:26;2.70;;;0.98;;
61523;SDS011;47393;38.758;-9.164;2023-08-12T03:10:27;1.02;;;1.00;;
61523;SDS011;47393;38.758;-9.164;2023-08-12T03:12:29;0.70;;;0.70;;
61523;SDS011;47393;38.758;-9.164;2023-08-12T03:14:31;1.50;;;1.10;;
61523;SDS011;47393;38.758;-9.164;2023-08-12T03:16:35;0.93;;;0.93;;
61523;SDS011;47393;38.758;-9.164;2023-08-12T03:18:36;0.80;;;0.80;;
61523;SDS011;47393;38.758;-9.164;2023-08-12T03:20:38;0.82;;;0.82;;
61523;SDS011;47393;38.758;-9.164;2023-08-12T03:22:39;1.88;;;1.00;;
61523;SDS011;47393;38.758;-9.164;2023-08-12T03:24:40;2.92;;;1.25;;
61523;SDS011;47393;38.758;-9.164;2023-08-12T03:26:41;1.40;;;0.70;;
61523;SDS011;47393;38.758;-9.164;2023-08-12T03:28:42;0.70;;;0.70;;
61523;SDS011;47393;38.758;-9.164;2023-08-12T03:30:50;0.88;;;0.88;;
61523;SDS011;47393;38.758;-9.164;2023-08-12T03:32:51;1.02;;;0.90;;
61523;SDS011;47393;38.758;-9.164;2023-08-12T03:34:52;0.73;;;0.73;;
61523;SDS011;47393;38.758;-9.164;2023-08-12T03:36:54;1.85;;;0.88;;
61523;SDS011;47393;38.758;-9.164;2023-08-12T03:38:57;0.60;;;0.60;;
61523;SDS011;47393;38.758;-9.164;2023-08-12T03:41:00;0.77;;;0.77;;
61523;SDS011;47393;38.758;-9.164;2023-08-12T03:43:01;1.00;;;0.60;;
61523;SDS011;47393;38.758;-9.164;2023-08-12T03:45:02;2.20;;;0.60;;
61523;SDS011;47393;38.758;-9.164;2023-08-12T03:47:03;2.20;;;0.57;;
61523;SDS011;47393;38.758;-9.164;2023-08-12T03:49:04;1.08;;;0.70;;
61523;SDS011;47393;38.758;-9.164;2023-08-12T03:51:05;0.60;;;0.60;;
61523;SDS011;47393;38.758;-9.164;2023-08-12T03:53:06;0.70;;;0.70;;
61523;SDS011;47393;38.758;-9.164;2023-08-12T03:55:12;0.70;;;0.70;;
61523;SDS011;47393;38.758;-9.164;2023-08-12T03:57:14;0.82;;;0.82;;
61523;SDS011;47393;38.758;-9.164;2023-08-12T03:59:20;0.75;;;0.75;;
61523;SDS011;47393;38.758;-9.164;2023-08-12T04:01:20;0.60;;;0.60;;
61523;SDS011;47393;38.758;-9.164;2023-08-12T04:03:22;0.93;;;0.90;;
61523;SDS011;47393;38.758;-9.164;2023-08-12T04:05:22;0.77;;;0.77;;
61523;SDS011;47393;38.758;-9.164;2023-08-12T04:07:24;1.38;;;0.80;;
61523;SDS011;47393;38.758;-9.164;2023-08-12T04:09:27;0.63;;;0.63;;
61523;SDS011;47393;38.758;-9.164;2023-08-12T04:11:29;1.05;;;0.80;;
61523;SDS011;47393;38.758;-9.164;2023-08-12T04:13:30;1.65;;;1.00;;
61523;SDS011;47393;38.758;-9.164;2023-08-12T04:15:31;1.20;;;0.80;;
61523;SDS011;47393;38.758;-9.164;2023-08-12T04:17:34;2.58;;;0.70;;
61523;SDS011;47393;38.758;-9.164;2023-08-12T04:19:41;4.13;;;0.73;;
61523;SDS011;47393;38.758;-9.164;2023-08-12T04:21:43;0.60;;;0.60;;
61523;SDS011;47393;38.758;-9.164;2023-08-12T04:23:49;0.70;;;0.70;;
61523;SDS011;47393;38.758;-9.164;2023-08-12T04:25:52;4.03;;;0.77;;
61523;SDS011;47393;38.758;-9.164;2023-08-12T04:28:00;0.77;;;0.77;;
61523;SDS011;47393;38.758;-9.164;2023-08-12T04:30:07;0.65;;;0.60;;
61523;SDS011;47393;38.758;-9.164;2023-08-12T04:32:10;0.98;;;0.80;;
61523;SDS011;47393;38.758;-9.164;2023-08-12T04:34:12;0.73;;;0.73;;
61523;SDS011;47393;38.758;-9.164;2023-08-12T04:36:13;1.75;;;1.20;;
61523;SDS011;47393;38.758;-9.164;2023-08-12T04:38:16;3.50;;;0.60;;
61523;SDS011;47393;38.758;-9.164;2023-08-12T04:40:19;0.60;;;0.60;;
61523;SDS011;47393;38.758;-9.164;2023-08-12T04:42:23;0.60;;;0.60;;
61523;SDS011;47393;38.758;-9.164;2023-08-12T04:44:26;1.60;;;0.52;;
61523;SDS011;47393;38.758;-9.164;2023-08-12T04:46:30;0.50;;;0.50;;
61523;SDS011;47393;38.758;-9.164;2023-08-12T04:48:31;0.70;;;0.70;;
61523;SDS011;47393;38.758;-9.164;2023-08-12T04:50:35;0.52;;;0.52;;
61523;SDS011;47393;38.758;-9.164;2023-08-12T04:52:35;0.70;;;0.70;;
61523;SDS011;47393;38.758;-9.164;2023-08-12T04:54:39;0.98;;;0.60;;
61523;SDS011;47393;38.758;-9.164;2023-08-12T04:56:41;0.60;;;0.60;;
61523;SDS011;47393;38.758;-9.164;2023-08-12T04:58:41;0.60;;;0.60;;
61523;SDS011;47393;38.758;-9.164;2023-08-12T05:00:44;0.70;;;0.70;;
61523;SDS011;47393;38.758;-9.164;2023-08-12T05:02:45;0.75;;;0.75;;
61523;SDS011;47393;38.758;-9.164;2023-08-12T05:04:48;1.00;;;0.65;;
61523;SDS011;47393;38.758;-9.164;2023-08-12T05:06:50;2.00;;;0.50;;
61523;SDS011;47393;38.758;-9.164;2023-08-12T05:08:51;0.55;;;0.50;;
61523;SDS011;47393;38.758;-9.164;2023-08-12T05:10:52;0.57;;;0.57;;
61523;SDS011;47393;38.758;-9.164;2023-08-12T05:12:57;1.67;;;0.60;;
61523;SDS011;47393;38.758;-9.164;2023-08-12T05:14:59;0.60;;;0.60;;
61523;SDS011;47393;38.758;-9.164;2023-08-12T05:17:10;0.60;;;0.60;;
61523;SDS011;47393;38.758;-9.164;2023-08-12T05:19:12;0.70;;;0.70;;
61523;SDS011;47393;38.758;-9.164;2023-08-12T05:21:12;0.57;;;0.57;;
61523;SDS011;47393;38.758;-9.164;2023-08-12T05:23:13;0.50;;;0.50;;
61523;SDS011;47393;38.758;-9.164;2023-08-12T05:25:14;0.75;;;0.75;;
61523;SDS011;47393;38.758;-9.164;2023-08-12T05:27:15;1.58;;;0.55;;
61523;SDS011;47393;38.758;-9.164;2023-08-12T05:29:17;2.78;;;0.50;;
61523;SDS011;47393;38.758;-9.164;2023-08-12T05:31:19;0.73;;;0.70;;
61523;SDS011;47393;38.758;-9.164;2023-08-12T05:33:20;1.85;;;0.80;;
61523;SDS011;47393;38.758;-9.164;2023-08-12T05:35:21;0.73;;;0.50;;
61523;SDS011;47393;38.758;-9.164;2023-08-12T05:37:23;0.60;;;0.60;;
61523;SDS011;47393;38.758;-9.164;2023-08-12T05:39:24;0.88;;;0.40;;
61523;SDS011;47393;38.758;-9.164;2023-08-12T05:41:25;0.50;;;0.50;;
61523;SDS011;47393;38.758;-9.164;2023-08-12T05:43:26;1.95;;;0.63;;
61523;SDS011;47393;38.758;-9.164;2023-08-12T05:45:26;1.00;;;0.47;;
61523;SDS011;47393;38.758;-9.164;2023-08-12T05:47:27;0.50;;;0.50;;
61523;SDS011;47393;38.758;-9.164;2023-08-12T05:49:28;0.52;;;0.38;;
61523;SDS011;47393;38.758;-9.164;2023-08-12T05:51:29;0.43;;;0.43;;
61523;SDS011;47393;38.758;-9.164;2023-08-12T05:53:30;0.40;;;0.40;;
61523;SDS011;47393;38.758;-9.164;2023-08-12T05:55:32;0.40;;;0.40;;
61523;SDS011;47393;38.758;-9.164;2023-08-12T05:57:33;0.65;;;0.50;;
61523;SDS011;47393;38.758;-9.164;2023-08-12T05:59:34;0.65;;;0.40;;
61523;SDS011;47393;38.758;-9.164;2023-08-12T06:01:35;4.03;;;0.50;;
61523;SDS011;47393;38.758;-9.164;2023-08-12T06:03:35;0.55;;;0.47;;
61523;SDS011;47393;38.758;-9.164;2023-08-12T06:05:38;0.30;;;0.30;;
61523;SDS011;47393;38.758;-9.164;2023-08-12T06:07:38;1.42;;;0.60;;
61523;SDS011;47393;38.758;-9.164;2023-08-12T06:09:42;0.38;;;0.38;;
61523;SDS011;47393;38.758;-9.164;2023-08-12T06:11:43;0.52;;;0.52;;
61523;SDS011;47393;38.758;-9.164;2023-08-12T06:13:44;2.88;;;0.40;;
61523;SDS011;47393;38.758;-9.164;2023-08-12T06:15:45;0.50;;;0.50;;
61523;SDS011;47393;38.758;-9.164;2023-08-12T06:17:47;0.30;;;0.30;;
61523;SDS011;47393;38.758;-9.164;2023-08-12T06:19:47;0.50;;;0.40;;
61523;SDS011;47393;38.758;-9.164;2023-08-12T06:21:49;0.20;;;0.20;;
61523;SDS011;47393;38.758;-9.164;2023-08-12T06:23:50;0.40;;;0.40;;
61523;SDS011;47393;38.758;-9.164;2023-08-12T06:25:51;0.40;;;0.40;;
61523;SDS011;47393;38.758;-9.164;2023-08-12T06:27:53;3.05;;;0.30;;
61523;SDS011;47393;38.758;-9.164;2023-08-12T06:29:54;0.50;;;0.50;;
61523;SDS011;47393;38.758;-9.164;2023-08-12T06:31:55;1.42;;;0.50;;
61523;SDS011;47393;38.758;-9.164;2023-08-12T06:33:56;0.50;;;0.30;;
61523;SDS011;47393;38.758;-9.164;2023-08-12T06:35:57;0.30;;;0.30;;
61523;SDS011;47393;38.758;-9.164;2023-08-12T06:37:58;0.20;;;0.20;;
61523;SDS011;47393;38.758;-9.164;2023-08-12T06:39:58;0.28;;;0.20;;
61523;SDS011;47393;38.758;-9.164;2023-08-12T06:41:59;0.38;;;0.20;;
61523;SDS011;47393;38.758;-9.164;2023-08-12T06:44:00;2.00;;;0.40;;
61523;SDS011;47393;38.758;-9.164;2023-08-12T06:46:01;0.32;;;0.20;;
61523;SDS011;47393;38.758;-9.164;2023-08-12T06:48:03;0.20;;;0.20;;
61523;SDS011;47393;38.758;-9.164;2023-08-12T06:50:04;1.23;;;0.20;;
61523;SDS011;47393;38.758;-9.164;2023-08-12T06:52:05;0.55;;;0.20;;
61523;SDS011;47393;38.758;-9.164;2023-08-12T06:54:06;1.17;;;0.30;;
61523;SDS011;47393;38.758;-9.164;2023-08-12T06:56:07;0.25;;;0.25;;
61523;SDS011;47393;38.758;-9.164;2023-08-12T06:58:07;2.42;;;0.32;;
61523;SDS011;47393;38.758;-9.164;2023-08-12T07:00:09;0.30;;;0.30;;
61523;SDS011;47393;38.758;-9.164;2023-08-12T07:02:10;0.25;;;0.25;;
61523;SDS011;47393;38.758;-9.164;2023-08-12T07:04:11;0.30;;;0.30;;
61523;SDS011;47393;38.758;-9.164;2023-08-12T07:06:12;0.30;;;0.30;;
61523;SDS011;47393;38.758;-9.164;2023-08-12T07:08:13;0.20;;;0.20;;
61523;SDS011;47393;38.758;-9.164;2023-08-12T07:10:14;0.30;;;0.30;;
61523;SDS011;47393;38.758;-9.164;2023-08-12T07:12:14;1.95;;;0.40;;
61523;SDS011;47393;38.758;-9.164;2023-08-12T07:14:15;0.43;;;0.40;;
61523;SDS011;47393;38.758;-9.164;2023-08-12T07:16:16;0.47;;;0.40;;
61523;SDS011;47393;38.758;-9.164;2023-08-12T07:18:16;3.00;;;0.20;;
61523;SDS011;47393;38.758;-9.164;2023-08-12T07:20:17;0.40;;;0.40;;
61523;SDS011;47393;38.758;-9.164;2023-08-12T07:22:18;0.93;;;0.47;;
61523;SDS011;47393;38.758;-9.164;2023-08-12T07:24:21;0.30;;;0.30;;
61523;SDS011;47393;38.758;-9.164;2023-08-12T07:26:22;0.50;;;0.30;;
61523;SDS011;47393;38.758;-9.164;2023-08-12T07:28:24;0.35;;;0.35;;
61523;SDS011;47393;38.758;-9.164;2023-08-12T07:30:25;2.15;;;0.30;;
61523;SDS011;47393;38.758;-9.164;2023-08-12T07:32:26;0.30;;;0.30;;
61523;SDS011;47393;38.758;-9.164;2023-08-12T07:34:26;0.50;;;0.38;;
61523;SDS011;47393;38.758;-9.164;2023-08-12T07:36:27;7.75;;;0.45;;
61523;SDS011;47393;38.758;-9.164;2023-08-12T07:38:33;0.73;;;0.40;;
61523;SDS011;47393;38.758;-9.164;2023-08-12T07:40:35;4.70;;;0.20;;
61523;SDS011;47393;38.758;-9.164;2023-08-12T07:42:36;0.30;;;0.30;;
61523;SDS011;47393;38.758;-9.164;2023-08-12T07:44:36;0.95;;;0.38;;
61523;SDS011;47393;38.758;-9.164;2023-08-12T07:46:40;1.88;;;0.30;;
61523;SDS011;47393;38.758;-9.164;2023-08-12T07:48:41;0.60;;;0.45;;
61523;SDS011;47393;38.758;-9.164;2023-08-12T07:50:42;0.57;;;0.43;;
61523;SDS011;47393;38.758;-9.164;2023-08-12T07:52:43;0.30;;;0.30;;
61523;SDS011;47393;38.758;-9.164;2023-08-12T07:54:44;2.25;;;0.32;;
61523;SDS011;47393;38.758;-9.164;2023-08-12T07:56:46;2.97;;;0.32;;
61523;SDS011;47393;38.758;-9.164;2023-08-12T07:58:47;4.75;;;0.40;;
61523;SDS011;47393;38.758;-9.164;2023-08-12T08:00:50;1.65;;;0.30;;
61523;SDS011;47393;38.758;-9.164;2023-08-12T08:04:53;0.30;;;0.30;;
61523;SDS011;47393;38.758;-9.164;2023-08-12T08:06:55;0.30;;;0.28;;
61523;SDS011;47393;38.758;-9.164;2023-08-12T08:09:02;13.88;;;0.82;;
61523;SDS011;47393;38.758;-9.164;2023-08-12T08:11:04;0.40;;;0.22;;
61523;SDS011;47393;38.758;-9.164;2023-08-12T08:13:05;0.63;;;0.30;;
61523;SDS011;47393;38.758;-9.164;2023-08-12T08:15:07;0.68;;;0.22;;
61523;SDS011;47393;38.758;-9.164;2023-08-12T08:17:10;16.33;;;1.77;;
61523;SDS011;47393;38.758;-9.164;2023-08-12T08:19:11;15.73;;;1.00;;
61523;SDS011;47393;38.758;-9.164;2023-08-12T08:21:11;1.23;;;0.40;;
61523;SDS011;47393;38.758;-9.164;2023-08-12T08:23:12;3.63;;;0.70;;
61523;SDS011;47393;38.758;-9.164;2023-08-12T08:25:13;0.43;;;0.43;;
61523;SDS011;47393;38.758;-9.164;2023-08-12T08:27:14;5.15;;;0.50;;
61523;SDS011;47393;38.758;-9.164;2023-08-12T08:29:16;3.70;;;0.30;;
61523;SDS011;47393;38.758;-9.164;2023-08-12T08:31:17;0.55;;;0.30;;
61523;SDS011;47393;38.758;-9.164;2023-08-12T08:33:17;1.38;;;0.47;;
61523;SDS011;47393;38.758;-9.164;2023-08-12T08:35:18;2.63;;;0.40;;
61523;SDS011;47393;38.758;-9.164;2023-08-12T08:37:19;2.45;;;0.30;;
61523;SDS011;47393;38.758;-9.164;2023-08-12T08:39:20;0.43;;;0.43;;
61523;SDS011;47393;38.758;-9.164;2023-08-12T08:41:21;0.77;;;0.30;;
61523;SDS011;47393;38.758;-9.164;2023-08-12T08:43:22;1.85;;;0.47;;
61523;SDS011;47393;38.758;-9.164;2023-08-12T08:45:25;1.70;;;0.45;;
61523;SDS011;47393;38.758;-9.164;2023-08-12T08:47:26;6.60;;;0.77;;
61523;SDS011;47393;38.758;-9.164;2023-08-12T08:49:28;0.30;;;0.22;;
61523;SDS011;47393;38.758;-9.164;2023-08-12T08:51:30;3.97;;;0.60;;
61523;SDS011;47393;38.758;-9.164;2023-08-12T08:53:31;0.57;;;0.45;;
61523;SDS011;47393;38.758;-9.164;2023-08-12T08:55:32;2.08;;;0.65;;
61523;SDS011;47393;38.758;-9.164;2023-08-12T08:57:32;0.63;;;0.63;;
61523;SDS011;47393;38.758;-9.164;2023-08-12T08:59:35;0.47;;;0.47;;
61523;SDS011;47393;38.758;-9.164;2023-08-12T09:01:36;0.50;;;0.50;;
61523;SDS011;47393;38.758;-9.164;2023-08-12T09:03:43;3.50;;;0.60;;
61523;SDS011;47393;38.758;-9.164;2023-08-12T09:05:44;3.22;;;0.40;;
61523;SDS011;47393;38.758;-9.164;2023-08-12T09:07:46;0.50;;;0.50;;
61523;SDS011;47393;38.758;-9.164;2023-08-12T09:09:48;2.75;;;0.30;;
61523;SDS011;47393;38.758;-9.164;2023-08-12T09:11:49;3.22;;;0.68;;
61523;SDS011;47393;38.758;-9.164;2023-08-12T09:13:54;0.70;;;0.32;;
61523;SDS011;47393;38.758;-9.164;2023-08-12T09:15:55;1.63;;;0.70;;
61523;SDS011;47393;38.758;-9.164;2023-08-12T09:17:59;1.13;;;0.50;;
61523;SDS011;47393;38.758;-9.164;2023-08-12T09:20:00;1.75;;;0.65;;
61523;SDS011;47393;38.758;-9.164;2023-08-12T09:22:06;2.75;;;0.63;;
61523;SDS011;47393;38.758;-9.164;2023-08-12T09:24:10;2.00;;;0.70;;
61523;SDS011;47393;38.758;-9.164;2023-08-12T09:26:18;4.03;;;0.60;;
61523;SDS011;47393;38.758;-9.164;2023-08-12T09:28:19;5.20;;;0.60;;
61523;SDS011;47393;38.758;-9.164;2023-08-12T09:30:22;6.55;;;1.00;;
61523;SDS011;47393;38.758;-9.164;2023-08-12T09:32:23;2.55;;;0.60;;
61523;SDS011;47393;38.758;-9.164;2023-08-12T09:34:24;7.60;;;0.73;;
61523;SDS011;47393;38.758;-9.164;2023-08-12T09:36:27;4.60;;;0.93;;
61523;SDS011;47393;38.758;-9.164;2023-08-12T09:40:29;3.85;;;0.82;;
61523;SDS011;47393;38.758;-9.164;2023-08-12T09:42:32;0.93;;;0.93;;
61523;SDS011;47393;38.758;-9.164;2023-08-12T09:44:36;6.60;;;0.98;;
61523;SDS011;47393;38.758;-9.164;2023-08-12T09:46:38;18.08;;;1.85;;
61523;SDS011;47393;38.758;-9.164;2023-08-12T09:48:39;6.07;;;0.70;;
61523;SDS011;47393;38.758;-9.164;2023-08-12T09:50:42;0.93;;;0.93;;
61523;SDS011;47393;38.758;-9.164;2023-08-12T09:52:43;11.93;;;1.73;;
61523;SDS011;47393;38.758;-9.164;2023-08-12T09:54:45;9.25;;;1.10;;
61523;SDS011;47393;38.758;-9.164;2023-08-12T09:56:48;3.75;;;0.88;;
61523;SDS011;47393;38.758;-9.164;2023-08-12T09:58:50;8.85;;;1.08;;
61523;SDS011;47393;38.758;-9.164;2023-08-12T10:00:53;10.77;;;1.05;;
61523;SDS011;47393;38.758;-9.164;2023-08-12T10:02:54;11.38;;;1.50;;
61523;SDS011;47393;38.758;-9.164;2023-08-12T10:04:55;2.58;;;1.10;;
61523;SDS011;47393;38.758;-9.164;2023-08-12T10:08:59;3.60;;;0.80;;
61523;SDS011;47393;38.758;-9.164;2023-08-12T10:11:00;1.30;;;0.70;;
61523;SDS011;47393;38.758;-9.164;2023-08-12T10:13:01;5.72;;;0.82;;
61523;SDS011;47393;38.758;-9.164;2023-08-12T10:15:03;9.70;;;1.20;;
61523;SDS011;47393;38.758;-9.164;2023-08-12T10:17:05;12.45;;;1.73;;
61523;SDS011;47393;38.758;-9.164;2023-08-12T10:19:05;5.57;;;0.80;;
61523;SDS011;47393;38.758;-9.164;2023-08-12T10:21:10;1.95;;;1.17;;
61523;SDS011;47393;38.758;-9.164;2023-08-12T10:23:15;6.43;;;1.00;;
61523;SDS011;47393;38.758;-9.164;2023-08-12T10:25:20;5.72;;;1.00;;
61523;SDS011;47393;38.758;-9.164;2023-08-12T10:27:25;1.83;;;0.98;;
61523;SDS011;47393;38.758;-9.164;2023-08-12T10:29:26;2.90;;;0.98;;
61523;SDS011;47393;38.758;-9.164;2023-08-12T10:31:27;5.07;;;1.15;;
61523;SDS011;47393;38.758;-9.164;2023-08-12T10:33:40;0.57;;;0.55;;
61523;SDS011;47393;38.758;-9.164;2023-08-12T10:35:44;1.55;;;0.82;;
61523;SDS011;47393;38.758;-9.164;2023-08-12T10:37:48;4.30;;;0.93;;
61523;SDS011;47393;38.758;-9.164;2023-08-12T10:41:54;6.72;;;1.05;;
61523;SDS011;47393;38.758;-9.164;2023-08-12T10:44:06;2.88;;;0.80;;
61523;SDS011;47393;38.758;-9.164;2023-08-12T10:46:08;2.95;;;0.70;;
61523;SDS011;47393;38.758;-9.164;2023-08-12T10:48:23;0.90;;;0.80;;
61523;SDS011;47393;38.758;-9.164;2023-08-12T10:50:24;1.60;;;0.60;;
61523;SDS011;47393;38.758;-9.164;2023-08-12T10:52:26;4.03;;;0.80;;
61523;SDS011;47393;38.758;-9.164;2023-08-12T10:54:31;1.25;;;0.88;;
61523;SDS011;47393;38.758;-9.164;2023-08-12T10:57:03;1.10;;;0.75;;
61523;SDS011;47393;38.758;-9.164;2023-08-12T10:58:54;3.00;;;0.90;;
61523;SDS011;47393;38.758;-9.164;2023-08-12T11:00:55;4.25;;;1.08;;
61523;SDS011;47393;38.758;-9.164;2023-08-12T11:02:56;4.68;;;0.85;;
61523;SDS011;47393;38.758;-9.164;2023-08-12T11:05:01;1.27;;;0.50;;
61523;SDS011;47393;38.758;-9.164;2023-08-12T11:07:14;3.05;;;0.80;;
61523;SDS011;47393;38.758;-9.164;2023-08-12T11:09:14;3.20;;;0.88;;
61523;SDS011;47393;38.758;-9.164;2023-08-12T11:11:22;1.20;;;0.43;;
61523;SDS011;47393;38.758;-9.164;2023-08-12T11:13:26;6.55;;;0.73;;
61523;SDS011;47393;38.758;-9.164;2023-08-12T11:15:33;0.70;;;0.65;;
61523;SDS011;47393;38.758;-9.164;2023-08-12T11:17:40;4.13;;;0.60;;
61523;SDS011;47393;38.758;-9.164;2023-08-12T11:19:42;0.77;;;0.77;;
61523;SDS011;47393;38.758;-9.164;2023-08-12T11:21:43;1.52;;;0.90;;
61523;SDS011;47393;38.758;-9.164;2023-08-12T11:23:44;1.00;;;0.70;;
61523;SDS011;47393;38.758;-9.164;2023-08-12T11:25:46;1.15;;;0.73;;
61523;SDS011;47393;38.758;-9.164;2023-08-12T11:27:51;1.40;;;0.50;;
61523;SDS011;47393;38.758;-9.164;2023-08-12T11:29:52;1.52;;;1.05;;
61523;SDS011;47393;38.758;-9.164;2023-08-12T11:31:53;1.00;;;1.00;;
61523;SDS011;47393;38.758;-9.164;2023-08-12T11:33:53;0.60;;;0.60;;
61523;SDS011;47393;38.758;-9.164;2023-08-12T11:35:56;4.47;;;0.90;;
61523;SDS011;47393;38.758;-9.164;2023-08-12T11:37:57;4.53;;;1.08;;
61523;SDS011;47393;38.758;-9.164;2023-08-12T11:40:00;2.63;;;0.85;;
61523;SDS011;47393;38.758;-9.164;2023-08-12T11:42:02;3.80;;;0.93;;
61523;SDS011;47393;38.758;-9.164;2023-08-12T11:44:11;0.45;;;0.45;;
61523;SDS011;47393;38.758;-9.164;2023-08-12T11:46:11;1.35;;;0.80;;
61523;SDS011;47393;38.758;-9.164;2023-08-12T11:48:12;4.30;;;0.73;;
61523;SDS011;47393;38.758;-9.164;2023-08-12T11:50:13;0.88;;;0.80;;
61523;SDS011;47393;38.758;-9.164;2023-08-12T11:52:14;1.15;;;0.82;;
61523;SDS011;47393;38.758;-9.164;2023-08-12T11:54:15;2.25;;;1.10;;
61523;SDS011;47393;38.758;-9.164;2023-08-12T11:56:17;4.70;;;1.08;;
61523;SDS011;47393;38.758;-9.164;2023-08-12T11:58:23;24.48;;;1.58;;
61523;SDS011;47393;38.758;-9.164;2023-08-12T12:00:24;1.27;;;0.98;;
61523;SDS011;47393;38.758;-9.164;2023-08-12T12:02:25;2.33;;;1.08;;
61523;SDS011;47393;38.758;-9.164;2023-08-12T12:04:26;1.92;;;1.02;;
61523;SDS011;47393;38.758;-9.164;2023-08-12T12:06:35;12.07;;;1.40;;
61523;SDS011;47393;38.758;-9.164;2023-08-12T12:08:39;7.03;;;1.13;;
61523;SDS011;47393;38.758;-9.164;2023-08-12T12:10:43;0.85;;;0.82;;
61523;SDS011;47393;38.758;-9.164;2023-08-12T12:12:45;3.50;;;1.10;;
61523;SDS011;47393;38.758;-9.164;2023-08-12T12:14:46;2.63;;;0.98;;